Date,TemperatureHighF,TemperatureAvgF,TemperatureLowF,DewpointHighF,DewpointAvgF,DewpointLowF,HumidityHigh,HumidityAvg,HumidityLow,PressureMaxIn,PressureMinIn,WindSpeedMaxMPH,WindSpeedAvgMPH,GustSpeedMaxMPH,PrecipitationSumIn
2013-1-1,26.0,20.7,12.0,23.0,18.0,14.0,100,88,74,27.49,27.32,7,1,7,0.00
2013-1-2,28.0,20.1,10.0,18.0,15.3,11.0,100,80,57,27.54,27.44,10,1,10,0.00
2013-1-3,23.0,12.6,7.0,18.0,12.1,8.0,100,94,66,27.53,27.34,7,1,7,0.00
2013-1-4,21.0,14.5,5.0,21.0,13.5,8.0,100,94,80,27.46,27.32,7,1,7,0.00
2013-1-5,29.0,18.0,9.0,24.0,18.1,11.0,100,97,77,27.44,27.18,9,1,9,0.00
2013-1-6,32.0,25.0,20.0,26.0,23.8,21.0,100,94,78,27.19,27.01,7,1,7,0.00
2013-1-7,40.0,29.9,23.0,33.0,27.4,23.0,100,90,74,27.05,26.78,14,1,15,0.00
2013-1-8,43.0,38.1,33.0,32.0,28.1,23.0,91,67,49,27.03,26.80,17,3,19,0.00
2013-1-9,45.0,37.1,34.0,38.0,34.7,31.0,100,91,58,26.93,26.65,16,3,16,0.54
2013-1-10,34.0,28.9,20.0,35.0,28.6,16.0,100,98,84,26.87,26.68,16,2,16,0.01
2013-1-11,24.0,16.6,7.0,18.0,14.1,8.0,100,87,62,27.27,26.88,7,1,7,0.01
2013-1-12,19.0,9.1,3.0,14.0,9.9,4.0,100,98,75,27.31,27.23,5,0,5,0.00
2013-1-13,18.0,8.9,4.0,14.0,9.0,4.0,100,96,73,27.40,27.29,6,0,6,0.00
2013-1-14,18.0,12.5,8.0,18.0,12.7,8.0,100,98,86,27.40,27.27,5,0,5,0.00
2013-1-15,32.0,19.9,13.0,26.0,19.4,14.0,100,96,75,27.53,27.37,6,0,6,0.01
2013-1-16,26.0,14.7,9.0,26.0,15.3,11.0,100,100,86,27.58,27.45,6,1,6,0.02
2013-1-17,25.0,13.2,6.0,26.0,13.8,8.0,100,99,88,27.60,27.36,6,1,7,0.01
2013-1-18,35.0,18.6,9.0,28.0,18.2,11.0,100,96,71,27.39,27.09,9,1,9,0.00
2013-1-19,39.0,22.5,12.0,31.0,20.5,14.0,100,91,56,27.41,27.19,7,1,7,0.10
2013-1-20,38.0,21.8,11.0,29.0,19.7,11.0,100,91,59,27.46,27.25,8,1,8,0.07
2013-1-21,33.0,17.2,6.0,26.0,16.5,8.0,100,94,67,27.40,27.14,7,1,7,0.01
2013-1-22,27.0,14.4,3.0,24.0,14.4,4.0,100,96,76,27.35,27.15,7,1,7,0.00
2013-1-23,31.0,20.9,13.0,24.0,19.1,14.0,100,91,67,27.23,26.97,7,0,7,0.00
2013-1-24,47.0,34.0,27.0,33.0,28.6,24.0,99,81,45,27.16,26.97,13,2,13,0.06
2013-1-25,43.0,34.5,30.0,37.0,31.0,26.0,100,87,67,27.14,26.88,9,1,9,0.05
2013-1-26,42.0,34.1,29.0,38.0,33.6,29.0,100,97,75,26.89,26.77,10,1,10,0.10
2013-1-27,40.0,30.1,25.0,33.0,27.3,21.0,100,90,49,26.92,26.81,10,1,10,0.00
2013-1-28,37.0,29.3,24.0,29.0,24.4,16.0,100,82,46,26.93,26.75,16,2,16,0.00
2013-1-29,40.0,28.5,25.0,32.0,27.1,24.0,100,94,63,27.10,26.80,9,1,9,0.17
2013-1-30,40.0,32.8,26.0,33.0,30.1,26.0,100,89,69,27.07,26.97,17,2,17,0.08
2013-1-31,44.0,39.1,35.0,36.0,32.8,31.0,93,77,67,27.11,27.05,12,2,12,0.01
2013-2-1,46.0,37.6,33.0,40.0,31.7,26.0,100,80,46,27.32,27.06,19,2,19,0.02
2013-2-2,49.0,33.2,23.0,32.0,26.5,23.0,100,78,43,27.46,27.23,9,1,9,0.01
2013-2-3,46.0,30.1,19.0,32.0,26.2,21.0,100,85,52,27.27,26.96,7,1,7,0.00
2013-2-4,47.0,37.9,31.0,33.0,30.2,28.0,93,74,51,27.02,26.91,14,3,14,0.00
2013-2-5,45.0,37.3,31.0,36.0,31.8,24.0,94,80,53,26.97,26.71,11,2,12,0.00
2013-2-6,44.0,35.7,25.0,33.0,28.8,23.0,99,77,47,27.08,26.85,15,2,15,0.02
2013-2-7,39.0,29.8,22.0,28.0,25.3,23.0,100,84,60,27.07,26.86,7,1,7,0.00
2013-2-8,43.0,32.8,26.0,32.0,28.3,24.0,100,83,62,27.01,26.89,14,2,14,0.00
2013-2-9,34.0,30.4,26.0,31.0,25.7,23.0,100,82,64,27.09,26.91,12,2,12,0.01
2013-2-10,41.0,28.7,22.0,29.0,23.4,18.0,100,81,42,27.19,27.05,20,2,20,0.03
2013-2-11,35.0,27.6,20.0,26.0,22.3,18.0,100,79,60,27.16,27.05,7,1,7,0.00
2013-2-12,40.0,34.2,30.0,33.0,28.3,24.0,93,78,63,27.16,27.03,12,1,12,0.01
2013-2-13,42.0,38.5,31.0,36.0,32.1,28.0,100,77,63,27.20,26.97,18,4,20,0.07
2013-2-14,42.0,34.4,24.0,31.0,27.1,21.0,100,76,42,27.36,27.20,15,2,15,0.00
2013-2-15,49.0,37.4,26.0,31.0,28.4,26.0,100,71,48,27.40,27.23,9,1,9,0.00
2013-2-16,42.0,32.5,21.0,36.0,28.9,21.0,100,87,64,27.29,26.78,16,2,17,0.05
2013-2-17,37.0,32.6,29.0,33.0,30.2,28.0,100,91,75,27.06,26.85,17,2,17,0.07
2013-2-18,43.0,33.4,26.0,33.0,25.2,18.0,100,74,37,27.08,26.80,14,2,14,0.02
2013-2-19,43.0,32.7,24.0,29.0,24.9,18.0,98,74,39,26.81,26.60,11,2,12,0.00
2013-2-20,39.0,32.2,27.0,33.0,25.3,18.0,100,76,47,26.94,26.78,16,2,16,0.02
2013-2-21,40.0,27.9,16.0,28.0,21.2,16.0,100,76,41,27.09,26.88,10,2,10,0.00
2013-2-22,44.0,35.4,26.0,29.0,26.0,21.0,100,71,41,26.98,26.60,23,3,23,0.00
2013-2-23,40.0,32.0,23.0,32.0,23.5,16.0,100,70,46,27.16,26.59,23,4,23,0.03
2013-2-24,40.0,30.1,23.0,24.0,21.8,18.0,90,70,42,27.21,27.11,17,2,17,0.00
2013-2-25,45.0,33.5,26.0,28.0,22.5,18.0,90,63,40,27.13,26.81,18,3,18,0.00
2013-2-26,38.0,32.3,24.0,31.0,24.1,16.0,98,73,42,27.27,27.00,15,2,15,0.00
2013-2-27,42.0,29.9,22.0,24.0,21.0,18.0,94,70,42,27.29,27.13,16,2,16,0.00
2013-2-28,45.0,35.2,25.0,35.0,29.9,23.0,99,81,60,27.29,27.17,9,2,9,0.03
2013-3-1,55.0,42.2,33.0,40.0,35.7,32.0,96,79,54,27.31,27.17,17,2,18,0.00
2013-3-2,55.0,40.6,28.0,41.0,34.0,28.0,100,80,48,27.31,26.88,12,1,12,0.05
2013-3-3,41.0,36.8,28.0,41.0,26.1,14.0,100,68,35,27.10,26.77,28,5,31,0.01
2013-3-4,40.0,30.1,20.0,28.0,18.6,11.0,100,64,32,27.30,27.10,18,4,19,0.02
2013-3-5,42.0,30.8,17.0,24.0,17.0,14.0,91,58,33,27.20,26.85,20,3,20,0.00
2013-3-6,46.0,34.0,28.0,37.0,29.8,21.0,100,84,65,26.87,26.60,19,2,20,0.18
2013-3-7,49.0,37.7,28.0,35.0,27.6,21.0,100,70,34,27.05,26.79,17,3,17,0.03
2013-3-8,51.0,33.0,18.0,29.0,23.0,18.0,100,70,28,27.08,26.80,15,2,15,0.00
2013-3-9,52.0,36.9,23.0,26.0,23.5,21.0,94,61,32,27.33,27.05,18,3,20,0.00
2013-3-10,50.0,36.1,21.0,35.0,25.6,21.0,100,69,35,27.41,27.05,21,2,22,0.01
2013-3-11,51.0,40.1,30.0,35.0,24.7,14.0,100,59,25,27.20,27.03,22,3,25,0.01
2013-3-12,48.0,38.4,30.0,38.0,30.2,21.0,92,72,62,27.19,26.99,11,2,11,0.00
2013-3-13,62.0,47.9,39.0,41.0,36.0,29.0,95,68,29,27.11,26.96,16,2,16,0.00
2013-3-14,62.0,46.1,32.0,37.0,33.8,29.0,96,64,39,27.17,26.83,10,2,10,0.00
2013-3-15,59.0,48.8,39.0,38.0,34.2,28.0,77,58,34,27.01,26.91,21,4,21,0.00
2013-3-16,52.0,41.8,34.0,38.0,33.3,31.0,95,73,47,27.03,26.65,26,3,26,0.01
2013-3-17,43.0,35.0,28.0,36.0,24.4,18.0,97,65,37,26.97,26.61,19,4,23,0.02
2013-3-18,44.0,32.5,28.0,31.0,23.4,14.0,100,71,32,27.07,26.85,23,4,26,0.00
2013-3-19,49.0,35.3,21.0,29.0,24.3,16.0,100,69,25,27.27,26.96,16,3,16,0.10
2013-3-20,61.0,40.1,32.0,40.0,29.6,23.0,86,66,39,26.96,26.39,30,4,33,0.08
2013-3-21,42.0,34.6,27.0,29.0,20.9,14.0,81,57,31,26.99,26.71,25,4,25,0.01
2013-3-22,38.0,28.1,22.0,28.0,23.5,18.0,100,82,45,27.19,26.96,14,2,14,0.00
2013-3-23,38.0,27.1,19.0,24.0,21.6,16.0,100,80,45,27.30,27.15,15,2,18,0.10
2013-3-24,45.0,29.3,18.0,23.0,16.4,8.0,92,62,23,27.34,27.10,12,3,12,0.00
2013-3-25,51.0,33.2,14.0,24.0,18.6,14.0,100,59,27,27.26,26.90,10,2,10,0.00
2013-3-26,59.0,43.7,33.0,29.0,26.0,23.0,73,51,27,26.98,26.77,13,2,13,0.00
2013-3-27,58.0,43.5,30.0,37.0,30.4,26.0,87,62,34,26.99,26.81,18,3,18,0.00
2013-3-28,58.0,45.0,33.0,42.0,36.4,32.0,100,74,48,27.05,26.88,16,2,16,0.00
2013-3-29,58.0,46.8,38.0,42.0,36.6,32.0,95,70,41,27.11,26.98,16,2,16,0.00
2013-3-30,64.0,47.4,30.0,38.0,31.9,28.0,100,60,27,27.25,26.96,11,2,11,0.00
2013-3-31,69.0,48.7,29.0,36.0,31.0,28.0,99,56,22,27.15,26.78,13,2,13,0.00
2013-4-1,70.0,52.9,34.0,33.0,30.2,26.0,79,44,22,27.01,26.73,14,3,14,0.00
2013-4-2,70.0,50.6,30.0,38.0,32.9,29.0,97,55,26,27.09,26.78,20,3,20,0.00
2013-4-3,66.0,50.7,38.0,41.0,35.0,29.0,86,58,28,27.07,26.84,19,2,19,0.00
2013-4-4,65.0,51.1,37.0,47.0,37.4,32.0,87,62,36,27.00,26.63,16,2,18,0.00
2013-4-5,58.0,50.2,44.0,46.0,38.2,33.0,92,65,45,26.87,26.71,25,3,25,0.01
2013-4-6,56.0,45.2,40.0,42.0,37.2,32.0,96,74,44,26.87,26.72,29,3,29,0.15
2013-4-7,50.0,41.2,36.0,42.0,35.9,32.0,94,81,58,26.84,26.55,16,2,16,0.12
2013-4-8,44.0,36.3,27.0,35.0,19.2,11.0,87,50,30,27.24,26.74,23,7,23,0.01
2013-4-9,52.0,35.5,21.0,24.0,15.4,8.0,66,44,22,27.36,27.07,15,4,16,0.00
2013-4-10,56.0,43.7,34.0,43.0,31.6,24.0,91,64,41,27.18,26.71,16,2,16,0.04
2013-4-11,49.0,44.1,37.0,39.0,30.6,24.0,88,60,38,27.03,26.85,23,4,23,0.00
2013-4-12,60.0,44.9,33.0,29.0,25.7,18.0,80,51,23,27.05,26.53,16,2,19,0.00
2013-4-13,48.0,40.3,32.0,38.0,27.0,16.0,96,61,30,26.79,26.50,25,5,25,0.00
2013-4-14,46.0,34.8,30.0,35.0,29.9,21.0,100,83,52,26.91,26.77,24,4,24,0.04
2013-4-15,42.0,32.4,25.0,21.0,13.6,8.0,67,45,26,27.12,26.91,20,6,20,0.00
2013-4-16,43.0,32.3,23.0,16.0,11.7,8.0,59,41,27,27.27,27.09,17,5,20,0.00
2013-4-17,49.0,34.4,19.0,14.0,11.2,8.0,73,39,18,27.38,27.11,16,3,16,0.00
2013-4-18,53.0,40.3,23.0,26.0,20.2,14.0,74,46,28,27.30,27.09,18,4,19,0.00
2013-4-19,53.0,46.5,39.0,41.0,33.8,24.0,78,61,48,27.12,26.81,16,3,16,0.02
2013-4-20,58.0,47.8,40.0,43.0,35.1,28.0,100,64,35,26.97,26.85,26,4,26,0.07
2013-4-21,53.0,40.6,26.0,36.0,31.3,21.0,100,70,43,27.26,26.86,19,5,19,0.00
2013-4-22,45.0,32.1,19.0,23.0,19.9,14.0,98,61,36,27.41,27.26,16,4,16,0.10
2013-4-23,52.0,35.7,18.0,28.0,22.2,16.0,100,60,28,27.38,27.04,19,3,19,0.00
2013-4-24,63.0,44.5,24.0,33.0,25.2,18.0,100,54,19,27.31,26.86,19,4,20,0.00
2013-4-25,67.0,53.2,39.0,31.0,27.5,23.0,65,39,20,26.99,26.72,21,4,21,0.00
2013-4-26,72.0,55.5,34.0,35.0,31.6,29.0,85,44,22,27.15,26.90,25,3,25,0.00
2013-4-27,70.0,56.1,40.0,39.0,32.9,26.0,81,45,20,27.08,26.80,29,4,29,0.00
2013-4-28,60.0,52.7,48.0,40.0,35.6,29.0,71,53,36,26.97,26.80,23,4,23,0.01
2013-4-29,55.0,45.4,34.0,41.0,31.1,23.0,91,58,37,26.89,26.57,36,6,36,0.06
2013-4-30,47.0,34.9,28.0,33.0,26.0,18.0,100,72,32,27.27,26.88,21,3,22,0.00
2013-5-1,55.0,41.0,30.0,35.0,27.5,18.0,100,65,24,27.51,27.27,16,3,16,0.03
2013-5-2,69.0,48.0,26.0,28.0,24.4,18.0,91,46,16,27.61,27.09,13,2,13,0.00
2013-5-3,61.0,50.6,43.0,43.0,35.1,28.0,82,55,43,27.17,27.05,19,3,23,0.00
2013-5-4,64.0,52.9,39.0,43.0,36.4,29.0,97,58,30,27.23,26.98,19,4,21,0.00
2013-5-5,74.0,57.4,35.0,38.0,34.0,31.0,91,46,21,27.11,26.71,16,3,17,0.00
2013-5-6,80.0,60.0,37.0,40.0,33.1,23.0,90,44,12,26.98,26.58,15,3,15,0.00
2013-5-7,79.0,61.8,41.0,39.0,34.9,31.0,78,40,21,26.89,26.65,20,4,20,0.00
2013-5-8,83.0,65.7,46.0,40.0,34.9,23.0,68,35,13,27.01,26.73,14,3,14,0.00
2013-5-9,82.0,63.3,44.0,47.5,40.4,33.0,80,46,18,27.09,26.78,16,2,17,0.00
2013-5-10,83.0,65.3,44.0,46.0,39.1,32.0,90,44,16,27.16,26.89,20,3,22,0.00
2013-5-11,85.0,64.3,45.0,45.0,41.2,35.0,89,50,18,27.19,26.81,18,2,18,0.00
2013-5-12,87.0,68.1,49.0,48.0,43.8,39.0,79,45,21,27.05,26.71,24,3,24,0.00
2013-5-13,83.0,63.3,51.0,57.0,48.1,40.0,88,61,24,26.98,26.55,32,3,34,0.22
2013-5-14,67.0,56.9,49.0,41.0,33.7,26.0,67,44,24,27.02,26.81,20,5,20,0.00
2013-5-15,70.0,53.7,37.0,39.0,34.5,29.0,90,52,27,27.07,26.71,12,2,14,0.00
2013-5-16,65.0,53.0,45.0,47.0,40.5,37.0,91,65,37,26.91,26.71,10,2,10,0.12
2013-5-17,53.0,48.8,43.0,50.0,44.8,39.0,98,87,72,26.89,26.81,7,1,8,0.18
2013-5-18,61.0,51.0,47.0,50.5,48.2,44.0,100,91,60,27.03,26.83,12,1,12,0.31
2013-5-19,62.0,50.9,44.0,48.0,44.9,41.0,100,82,51,27.13,27.01,15,1,15,0.01
2013-5-20,74.0,59.7,45.0,46.0,42.2,36.0,95,58,28,27.19,26.86,13,2,16,0.00
2013-5-21,77.0,62.0,45.0,47.5,42.6,39.0,87,51,27,26.91,26.49,25,5,28,0.00
2013-5-22,61.0,50.0,40.0,47.5,42.4,38.0,95,77,53,26.97,26.55,23,5,24,0.43
2013-5-23,62.0,48.7,39.0,40.0,33.6,18.0,98,61,20,26.96,26.78,22,3,22,0.00
2013-5-24,64.0,51.1,38.0,39.0,34.9,29.0,91,56,29,26.97,26.72,29,3,29,0.01
2013-5-25,66.0,49.8,33.0,38.0,33.9,29.0,99,59,29,27.05,26.80,12,2,12,0.00
2013-5-26,72.0,54.0,35.0,47.5,39.5,33.0,97,61,28,27.01,26.67,15,2,15,0.00
2013-5-27,70.0,56.5,48.0,50.5,45.4,38.0,97,70,34,26.87,26.65,17,2,17,0.10
2013-5-28,64.0,53.3,48.0,51.0,48.5,42.0,100,85,46,26.75,26.65,15,2,15,0.30
2013-5-29,73.0,55.9,44.0,50.5,43.6,35.0,100,69,25,26.79,26.47,20,2,20,0.03
2013-5-30,61.0,52.2,47.0,47.5,40.1,32.0,88,65,35,27.00,26.79,20,4,22,0.11
2013-5-31,67.0,54.6,43.0,40.0,36.9,31.0,84,54,27,27.17,27.00,15,2,15,0.00
2013-6-1,74.0,56.4,36.0,41.0,36.6,29.0,98,53,20,27.26,26.84,12,2,12,0.00
2013-6-2,64.0,53.7,45.0,50.0,44.8,38.0,98,73,49,26.90,26.73,29,3,29,0.37
2013-6-3,63.0,51.9,46.0,52.0,47.6,44.0,100,86,52,27.01,26.85,21,2,22,0.13
2013-6-4,73.0,58.3,49.0,46.0,39.5,31.0,87,54,24,27.09,26.92,15,4,15,0.00
2013-6-5,82.0,62.5,40.0,45.0,40.8,38.0,95,51,22,27.13,26.75,11,2,12,0.00
2013-6-6,87.0,68.1,51.0,52.0,44.8,39.0,73,47,23,27.00,26.71,11,2,11,0.00
2013-6-7,81.0,68.2,53.0,53.0,46.9,41.0,83,50,28,26.89,26.63,22,3,22,0.00
2013-6-8,81.0,67.7,51.0,47.0,35.6,28.0,64,34,17,26.93,26.71,20,4,20,0.00
2013-6-9,81.0,65.5,47.0,45.0,35.1,18.0,77,39,11,26.93,26.60,25,4,25,0.00
2013-6-10,83.0,64.1,42.0,40.0,32.6,23.0,75,36,13,26.90,26.51,12,2,12,0.00
2013-6-11,84.0,64.9,51.0,45.0,39.3,35.0,66,42,19,26.87,26.55,21,3,21,0.00
2013-6-12,73.0,61.1,51.0,46.0,42.0,39.0,76,51,32,26.92,26.76,23,5,23,0.00
2013-6-13,64.0,53.6,49.0,51.0,46.3,38.0,98,78,42,27.00,26.85,16,3,16,0.44
2013-6-14,65.0,53.1,40.0,46.0,39.3,31.0,100,65,30,27.07,26.96,22,2,25,0.00
2013-6-15,80.0,60.0,37.0,42.0,37.1,29.0,98,50,19,27.13,26.77,11,2,12,0.00
2013-6-16,84.0,65.9,44.0,43.0,38.4,26.0,87,42,13,27.05,26.77,14,3,15,0.00
2013-6-17,90.0,72.6,55.0,50.0,43.1,33.0,70,38,16,26.95,26.65,17,3,17,0.00
2013-6-18,85.0,67.4,53.0,54.5,48.2,43.0,80,53,26,26.79,26.52,17,3,17,0.00
2013-6-19,62.0,55.8,50.0,53.0,48.9,44.0,98,79,58,26.81,26.60,17,3,17,0.38
2013-6-20,63.0,51.8,46.0,47.0,42.3,35.0,96,73,36,27.03,26.80,16,3,19,0.09
2013-6-21,72.0,55.1,39.0,46.0,40.8,35.0,100,64,29,27.08,26.85,21,3,21,0.00
2013-6-22,72.0,56.9,41.0,47.5,42.7,39.0,98,63,34,27.05,26.85,14,2,15,0.00
2013-6-23,77.0,61.8,42.0,48.0,42.9,39.0,98,55,27,26.95,26.57,12,2,12,0.00
2013-6-24,73.0,62.2,57.0,57.0,52.4,47.5,97,71,45,26.68,26.50,15,3,16,0.12
2013-6-25,74.0,60.1,54.0,57.5,53.0,45.0,100,81,39,26.87,26.65,12,2,12,0.27
2013-6-26,71.0,59.8,54.0,57.5,54.2,50.5,100,83,53,27.06,26.87,9,1,9,0.01
2013-6-27,88.0,69.5,51.0,57.0,52.3,47.0,100,60,27,27.13,26.93,12,2,12,0.00
2013-6-28,94.0,75.0,53.0,57.5,51.7,47.5,93,49,22,27.20,26.88,10,2,10,0.00
2013-6-29,89.0,73.8,57.0,60.0,55.5,53.0,93,55,31,27.07,26.77,16,3,16,0.00
2013-6-30,95.0,77.9,61.0,60.5,55.7,48.0,87,51,23,27.00,26.81,14,2,14,0.00
2013-7-1,100.0,80.1,59.0,61.5,53.8,31.0,87,47,9,27.06,26.78,13,2,13,0.00
2013-7-2,102.0,81.7,61.0,60.5,55.2,49.0,82,45,18,27.01,26.71,11,1,11,0.00
2013-7-3,93.0,80.2,64.0,62.0,52.8,39.0,88,45,16,26.92,26.71,23,3,23,0.00
2013-7-4,91.0,74.9,59.0,53.5,46.2,35.0,74,41,16,26.89,26.61,18,3,18,0.00
2013-7-5,87.0,71.6,53.0,46.0,39.9,28.0,68,35,16,26.85,26.57,17,2,17,0.00
2013-7-6,87.0,70.0,52.0,46.0,39.3,24.0,68,37,13,26.91,26.65,14,3,14,0.00
2013-7-7,90.0,72.0,50.0,47.5,42.9,38.0,77,39,18,26.89,26.65,16,2,16,0.00
2013-7-8,84.0,68.6,56.0,58.0,47.5,33.0,94,52,17,27.01,26.77,20,3,20,0.13
2013-7-9,90.0,71.2,51.0,50.0,44.6,37.0,84,44,16,27.12,26.87,13,2,13,0.00
2013-7-10,97.0,75.8,51.0,47.5,42.2,33.0,80,37,12,27.05,26.63,12,2,12,0.00
2013-7-11,85.0,73.2,60.0,52.0,43.9,31.0,66,38,18,26.82,26.69,25,3,25,0.00
2013-7-12,85.0,67.8,51.0,57.0,47.1,38.0,83,51,20,26.91,26.67,21,3,24,0.06
2013-7-13,84.0,68.9,55.0,53.5,39.5,26.0,83,42,13,27.03,26.85,23,3,23,0.00
2013-7-14,88.0,69.5,48.0,42.0,36.8,23.0,73,36,9,27.11,26.83,17,2,17,0.00
2013-7-15,93.0,73.0,51.0,44.0,38.4,32.0,67,33,13,26.99,26.75,21,3,21,0.00
2013-7-16,90.0,75.0,63.0,51.0,46.2,37.0,51,37,22,27.03,26.80,22,4,23,0.00
2013-7-17,95.0,80.3,69.0,56.0,51.4,41.0,58,39,22,27.00,26.82,9,4,9,0.00
2013-7-18,93.0,75.7,56.0,48.0,40.9,24.0,66,34,10,27.12,26.91,9,2,9,0.00
2013-7-19,92.0,74.4,54.0,44.0,38.0,29.0,64,32,11,27.09,26.82,9,2,9,0.00
2013-7-20,94.0,75.1,53.0,44.0,37.5,24.0,66,30,9,26.81,26.73,9,2,9,0.00
2013-7-21,95.0,74.9,52.0,42.0,34.7,23.0,63,29,8,26.90,26.67,9,2,9,0.00
2013-7-22,93.0,74.4,52.0,39.0,34.8,23.0,54,26,8,26.91,26.77,9,2,9,0.00
2013-7-23,95.0,76.1,53.0,43.0,37.5,29.0,66,30,10,27.05,26.82,9,2,9,0.00
2013-7-24,97.0,76.9,54.0,42.0,35.1,18.0,64,28,7,27.02,26.80,9,2,9,0.00
2013-7-25,97.0,79.7,60.0,49.0,40.3,29.0,52,27,11,27.05,26.87,9,3,9,0.00
2013-7-26,96.0,76.5,54.0,43.0,34.3,14.0,63,27,6,27.11,26.88,9,2,9,0.00
2013-7-27,89.0,73.6,54.0,40.0,32.9,23.0,51,25,9,27.01,26.77,9,2,9,0.00
2013-7-28,89.0,71.1,53.0,41.0,33.6,24.0,56,28,10,26.91,26.71,9,2,9,0.00
2013-7-29,88.0,71.9,56.0,46.0,36.7,21.0,54,30,11,26.93,26.80,9,4,9,0.00
2013-7-30,89.0,70.7,57.0,48.0,38.7,31.0,48,33,16,27.09,26.90,9,2,9,0.00
2013-7-31,91.0,71.7,50.0,45.0,39.1,29.0,68,35,11,27.18,26.88,9,2,9,0.00
2013-8-1,73.0,63.3,56.0,61.0,52.1,39.0,97,70,30,27.03,26.88,15,2,15,0.34
2013-8-2,72.0,58.7,51.0,59.0,52.3,49.0,100,82,50,27.07,26.93,13,2,13,0.03
2013-8-3,77.0,62.3,46.0,53.0,48.9,45.0,100,67,34,27.14,26.99,16,2,16,0.00
2013-8-4,87.0,67.6,48.0,53.0,46.9,39.0,99,55,20,27.11,26.91,10,2,11,0.00
2013-8-5,88.0,68.5,49.0,50.0,44.9,38.0,87,48,18,27.05,26.85,20,2,20,0.00
2013-8-6,88.0,70.7,52.0,49.0,45.3,39.0,82,45,19,27.03,26.90,13,2,15,0.00
2013-8-7,92.0,72.2,51.0,48.0,44.2,36.0,81,42,16,27.07,26.85,13,2,13,0.00
2013-8-8,90.0,73.2,53.0,50.0,43.3,32.0,73,38,14,27.03,26.88,21,3,21,0.00
2013-8-9,91.0,75.1,67.0,53.0,49.3,43.0,55,42,20,27.03,26.88,31,6,31,0.02
2013-8-10,91.0,73.3,56.0,54.0,48.6,36.0,86,47,16,27.07,26.89,21,3,21,0.00
2013-8-11,85.0,70.3,57.0,52.0,48.0,44.0,73,47,25,27.06,26.94,13,1,13,0.00
2013-8-12,89.0,70.6,55.0,60.0,47.0,40.0,73,46,20,27.11,26.97,13,2,13,0.12
2013-8-13,88.0,72.9,61.0,53.0,46.1,33.0,67,42,16,27.18,27.00,15,3,15,0.00
2013-8-14,92.0,71.1,50.0,51.0,43.9,32.0,93,44,13,27.15,26.96,13,2,13,0.00
2013-8-15,97.0,74.8,51.0,45.0,38.2,18.0,73,33,8,27.08,26.92,12,2,12,0.00
2013-8-16,95.0,75.1,53.0,48.0,40.7,35.0,65,33,13,27.08,26.94,19,2,19,0.00
2013-8-17,90.0,74.9,60.0,53.0,47.4,40.0,67,41,21,27.15,26.98,18,3,19,0.00
2013-8-18,90.0,74.1,57.0,54.0,47.2,37.0,85,44,18,27.19,27.02,19,3,19,0.00
2013-8-19,89.0,71.6,52.0,47.0,42.4,37.0,72,39,18,27.15,26.97,22,3,24,0.00
2013-8-20,86.0,70.5,52.0,47.0,42.4,36.0,75,40,18,27.14,27.00,19,3,22,0.00
2013-8-21,88.0,68.3,48.0,42.0,37.4,28.0,68,36,12,27.20,27.02,10,2,10,0.00
2013-8-22,90.0,70.4,54.0,47.0,40.3,35.0,61,37,16,27.13,26.91,9,1,9,0.00
2013-8-23,87.0,72.3,59.0,55.0,47.7,41.0,69,44,24,27.00,26.86,17,3,18,0.00
2013-8-24,90.0,71.9,53.0,50.0,45.7,36.0,86,45,18,27.05,26.84,20,2,22,0.00
2013-8-25,90.0,71.2,60.0,60.0,47.4,35.0,95,49,18,27.07,26.91,26,3,26,0.17
2013-8-26,86.0,67.9,56.0,57.0,52.0,43.0,96,63,23,27.13,26.96,11,2,11,0.00
2013-8-27,90.0,69.4,49.0,50.0,45.0,38.0,90,48,17,27.12,26.93,18,2,25,0.00
2013-8-28,86.0,69.7,60.0,57.0,50.8,44.0,79,53,29,27.15,26.96,13,2,13,0.01
2013-8-29,92.0,66.8,53.0,64.0,54.8,44.0,100,72,23,27.13,26.98,20,1,20,0.31
2013-8-30,84.0,66.3,52.0,58.0,50.6,40.0,100,65,25,27.25,27.10,19,2,19,0.00
2013-8-31,87.0,67.6,47.0,50.0,46.0,41.0,94,51,21,27.27,27.05,10,2,10,0.00
2013-9-1,96.0,70.5,48.0,50.0,45.4,37.0,90,47,13,27.19,26.96,9,1,10,0.00
2013-9-2,82.0,70.7,58.0,51.0,47.4,41.0,69,45,29,27.11,26.96,16,1,17,0.00
2013-9-3,78.0,68.2,59.0,57.0,52.7,48.0,78,59,39,27.32,27.07,12,1,12,0.00
2013-9-4,93.0,73.3,55.0,59.0,51.8,42.0,93,53,18,27.50,27.15,13,2,13,0.00
2013-9-5,80.0,70.7,63.0,64.0,55.4,49.0,88,60,46,27.34,27.16,14,2,14,0.04
2013-9-6,82.0,67.8,56.0,60.0,55.1,47.0,100,69,35,27.32,27.19,19,3,19,0.01
2013-9-7,83.0,68.6,54.0,51.0,48.3,43.0,85,51,25,27.33,27.14,16,3,16,0.00
2013-9-8,69.0,58.4,50.0,56.0,49.8,44.0,95,74,53,27.30,27.16,21,1,25,0.12
2013-9-9,81.0,66.0,56.0,53.0,49.8,47.0,85,60,32,27.48,27.23,10,1,10,0.00
2013-9-10,86.0,65.6,48.0,52.0,47.5,40.0,97,58,22,27.48,27.15,11,2,11,0.00
2013-9-11,88.0,69.2,48.0,50.0,44.3,38.0,93,48,18,27.36,27.19,24,3,24,0.00
2013-9-12,90.0,74.9,64.0,50.0,44.9,40.0,55,36,18,27.30,27.03,15,3,16,0.00
2013-9-13,89.0,70.7,53.0,51.0,47.0,36.0,87,48,18,27.10,26.91,50,2,50,0.00
2013-9-14,80.0,68.7,56.0,53.0,48.3,43.0,80,51,29,27.14,26.97,19,2,19,0.00
2013-9-15,88.0,73.7,60.0,50.0,47.1,44.0,60,40,24,27.15,26.91,26,3,26,0.00
2013-9-16,85.0,70.9,58.0,56.0,48.9,36.0,85,50,19,27.02,26.90,23,4,23,0.00
2013-9-17,72.0,59.0,48.0,56.0,48.5,44.0,98,70,43,26.85,26.77,20,2,20,0.21
2013-9-18,61.0,54.5,50.0,50.0,42.0,37.0,96,64,43,27.21,27.01,12,3,16,0.04
2013-9-19,71.0,55.9,45.0,47.0,40.4,33.0,96,61,25,27.36,27.14,13,2,13,0.00
2013-9-20,82.0,56.1,34.0,41.0,36.5,31.0,99,56,16,27.16,26.80,8,1,8,0.00
2013-9-21,71.0,56.0,41.0,43.0,38.0,36.0,87,54,28,26.86,26.77,21,2,21,0.00
2013-9-22,64.0,54.3,49.0,51.0,46.7,42.0,92,77,52,26.88,26.79,12,2,12,0.05
2013-9-23,61.0,52.3,45.0,47.0,42.1,37.0,97,70,44,27.13,26.88,18,2,19,0.03
2013-9-24,52.0,48.5,45.0,49.0,45.1,39.0,99,89,67,27.10,26.91,8,1,10,0.26
2013-9-25,47.0,45.4,44.0,47.0,43.8,40.0,100,95,82,26.94,26.92,9,2,12,0.29
2013-9-26,56.0,45.5,37.0,43.0,39.2,33.0,100,80,46,27.19,26.94,13,2,13,0.08
2013-9-27,54.0,40.8,28.0,41.0,36.0,28.0,100,85,55,27.20,27.09,10,1,10,0.01
2013-9-28,64.0,53.0,44.0,45.0,41.4,38.0,91,67,41,27.10,26.88,18,3,19,0.00
2013-9-29,61.0,51.2,46.0,46.0,39.6,36.0,83,65,47,26.84,26.84,20,6,29,0.07
2013-9-30,57.0,47.6,43.0,43.0,37.5,32.0,94,69,44,27.07,26.68,24,4,24,0.15
2013-10-1,57.0,46.4,41.0,42.0,37.8,32.0,98,74,40,27.19,27.04,20,2,20,0.08
2013-10-2,56.0,45.4,33.0,39.0,33.0,28.0,100,65,34,27.31,27.07,15,3,15,0.00
2013-10-3,51.0,42.8,37.0,35.0,31.5,28.0,83,66,42,27.34,27.06,16,2,16,0.00
2013-10-7,68.0,56.1,35.0,42.0,33.9,28.0,100,46,28,27.07,26.93,21,4,22,0.00
2013-10-8,54.0,45.2,35.0,41.0,34.7,31.0,97,67,45,27.08,26.96,15,2,17,0.02
2013-10-9,59.0,44.5,34.0,40.0,35.8,33.0,100,75,38,27.17,26.97,12,3,13,0.00
2013-10-10,52.0,45.2,32.0,39.0,35.8,32.0,100,71,51,27.02,26.96,10,1,13,0.00
2013-10-11,56.0,43.8,32.0,37.0,31.8,24.0,100,66,31,27.17,27.03,19,2,19,0.00
2013-10-12,54.0,40.0,29.0,33.0,30.0,26.0,97,70,36,27.18,27.09,7,1,8,0.00
2013-10-13,57.0,41.3,28.0,36.0,31.3,28.0,100,71,37,27.29,27.18,15,2,15,0.00
2013-10-14,58.0,44.6,35.0,37.0,32.9,28.0,91,65,33,27.46,27.29,10,2,10,0.00
2013-10-15,57.0,38.1,23.0,37.0,29.6,23.0,100,75,34,27.51,27.26,9,1,9,0.00
2013-10-16,52.0,38.9,29.0,36.0,31.4,28.0,100,76,50,27.28,27.19,9,1,9,0.00
2013-10-17,50.0,36.5,26.0,36.0,32.8,26.0,100,87,58,27.37,27.24,7,1,8,0.00
2013-10-18,58.0,36.1,23.0,36.0,29.6,23.0,100,81,38,27.42,27.21,8,1,8,0.00
2013-10-19,58.0,38.7,24.0,38.0,31.2,24.0,100,77,41,27.26,27.09,7,1,7,0.00
2013-10-20,63.0,46.4,32.0,37.0,33.9,31.0,99,65,34,27.24,27.15,10,1,10,0.00
2013-10-21,64.0,43.2,28.0,40.0,35.1,28.0,100,77,37,27.35,27.24,8,1,8,0.00
2013-10-22,65.0,42.6,28.0,44.0,35.7,28.0,100,80,38,27.36,27.22,9,1,9,0.00
2013-10-23,65.0,42.8,27.0,39.0,33.8,28.0,100,75,34,27.33,27.21,8,1,8,0.00
2013-10-24,64.0,41.2,26.0,39.0,32.6,26.0,100,76,33,27.33,27.18,8,1,8,0.00
2013-10-25,42.0,29.6,25.0,39.0,29.2,26.0,100,98,87,27.37,27.24,5,0,5,0.00
2013-10-27,51.0,44.4,35.0,35.0,25.5,16.0,87,47,39,27.37,26.89,26,7,26,0.00
2013-10-28,40.0,31.7,27.0,23.0,16.1,14.0,79,51,38,27.22,27.10,25,6,25,0.00
2013-10-29,45.0,30.4,19.0,21.0,17.7,14.0,88,59,35,27.15,26.99,22,3,22,0.00
2013-10-30,52.0,33.0,16.0,26.0,21.9,16.0,100,69,35,27.13,27.01,13,1,13,0.00
2013-10-31,48.0,42.3,39.0,38.0,31.8,24.0,89,66,47,27.19,27.07,13,2,13,0.01
2013-11-1,54.0,40.7,34.0,41.0,33.8,28.0,100,79,40,27.29,27.19,13,2,13,0.02
2013-11-2,52.0,36.7,30.0,41.0,32.5,28.0,97,86,43,27.19,26.76,22,2,22,0.12
2013-11-3,43.0,35.6,29.0,33.0,28.2,24.0,100,75,51,27.06,26.85,17,2,19,0.00
2013-11-4,36.0,29.7,23.0,33.0,28.6,23.0,100,95,73,27.23,27.04,10,2,16,0.02
2013-11-5,37.0,28.0,19.0,31.0,25.9,18.0,100,91,50,27.28,27.20,9,1,9,0.01
2013-11-6,44.0,34.9,30.0,36.0,31.9,31.0,100,88,67,27.39,27.20,7,1,7,0.18
2013-11-7,44.0,38.3,34.0,39.0,34.2,31.0,98,86,67,27.37,26.84,16,3,16,0.10
2013-11-8,46.0,40.4,33.0,37.0,32.4,28.0,87,73,60,27.23,26.96,12,2,13,0.00
2013-11-9,45.0,35.5,26.0,32.0,30.1,26.0,100,81,57,27.31,27.23,7,1,7,0.00
2013-11-10,49.0,40.1,34.0,41.0,35.9,31.0,96,85,70,27.28,27.20,9,1,9,0.01
2013-11-11,51.0,41.6,35.0,42.0,39.1,33.0,100,91,70,27.48,27.28,10,1,11,0.05
2013-11-12,48.0,40.2,31.0,39.0,36.9,31.0,100,88,68,27.46,27.38,8,1,9,0.00
2013-11-13,52.0,42.6,38.0,44.0,36.3,31.0,100,80,47,27.40,27.33,22,2,22,0.01
2013-11-14,48.0,39.5,32.0,35.0,31.8,29.0,92,74,50,27.34,26.94,7,1,7,0.00
2013-11-15,42.0,39.3,37.0,32.0,26.8,23.0,82,60,49,26.95,26.53,23,3,23,0.00
2013-11-16,44.0,36.8,32.0,35.0,28.3,23.0,96,72,45,26.75,26.41,18,3,18,0.01
2013-11-17,39.0,33.9,30.0,33.0,30.0,26.0,98,85,74,27.06,26.75,16,2,16,0.01
2013-11-18,47.0,38.5,30.0,31.0,27.1,23.0,86,64,43,27.09,26.88,22,2,22,0.00
2013-11-19,53.0,42.9,32.0,39.0,35.4,29.0,93,76,48,26.88,26.76,18,3,18,0.00
2013-11-20,45.0,35.0,18.0,38.0,20.3,8.0,85,54,27,27.42,26.80,20,4,20,0.00
2013-11-21,33.0,19.4,11.0,14.0,12.3,8.0,100,71,38,27.72,27.42,9,2,9,0.00
2013-11-22,34.0,17.4,6.0,21.0,12.7,8.0,100,81,41,27.80,27.65,8,1,8,0.00
2013-11-23,36.0,18.4,7.0,23.0,14.6,8.0,100,84,43,27.72,27.44,7,1,7,0.00
2013-11-24,36.0,23.3,11.0,23.0,18.3,11.0,100,80,52,27.44,27.29,7,1,7,0.00
2013-11-25,41.0,26.9,16.0,26.0,21.7,16.0,100,81,46,27.50,27.36,7,0,7,0.00
2013-11-26,39.0,25.8,16.0,29.0,22.5,16.0,100,87,57,27.50,27.24,6,0,7,0.00
2013-11-27,40.0,25.5,18.0,31.0,23.5,18.0,100,91,59,27.29,27.17,6,0,6,0.00
2013-11-28,37.0,21.9,14.0,29.0,21.3,14.0,100,96,67,27.30,27.18,6,0,6,0.00
2013-11-29,35.0,24.3,15.0,32.0,23.3,16.0,100,94,76,27.34,27.22,7,1,7,0.00
2013-11-30,39.0,34.2,31.0,35.0,31.2,28.0,96,89,82,27.30,27.22,7,0,7,0.01
2013-12-1,44.0,37.8,33.0,40.0,36.8,32.0,100,96,83,27.22,26.77,18,2,19,0.13
2013-12-2,43.0,34.0,19.0,40.0,29.8,18.0,100,84,54,27.03,26.67,26,3,26,0.17
2013-12-3,20.0,14.1,7.0,21.0,7.0,0.0,96,69,44,27.33,27.03,17,4,17,0.00
2013-12-4,15.0,5.0,-4.0,8.0,1.5,0.0,100,82,46,27.40,27.31,12,2,12,0.00
2013-12-5,10.0,2.0,-7.0,8.0,1.6,-6.0,100,89,62,27.39,27.25,17,2,19,0.00
2013-12-6,5.0,0.4,-5.0,0.0,-5.8,-13.0,72,64,54,27.42,27.32,23,7,25,0.00
2013-12-7,5.0,-4.6,-12.0,0.0,-8.8,-13.0,100,73,48,27.38,27.21,20,4,20,0.00
2013-12-8,6.0,-4.9,-14.0,4.0,-2.8,-13.0,100,98,83,27.51,27.36,6,1,6,0.00
2013-12-9,9.0,3.2,-8.0,11.0,4.7,-6.0,100,100,98,27.52,27.30,5,0,5,0.00
2013-12-10,28.0,18.8,9.0,23.0,17.5,11.0,100,92,72,27.38,27.25,7,0,7,0.00
2013-12-11,28.0,21.8,16.0,23.0,20.9,16.0,100,94,77,27.43,27.36,5,0,5,0.00
2013-12-12,29.0,22.8,19.0,24.0,22.4,21.0,100,96,80,27.36,27.13,7,1,7,0.00
2013-12-13,36.0,28.8,23.0,32.0,28.1,23.0,100,96,82,27.36,27.13,7,0,7,0.01
2013-12-14,37.0,31.4,24.0,33.0,30.8,24.0,100,96,84,27.39,27.28,7,1,7,0.03
2013-12-15,46.0,33.4,21.0,35.0,28.7,21.0,100,84,59,27.32,27.19,11,2,11,0.05
2013-12-16,51.0,41.8,26.0,32.0,28.4,24.0,92,59,40,27.38,27.23,18,3,19,0.00
2013-12-17,43.0,28.8,20.0,29.0,25.0,21.0,100,86,51,27.39,26.99,9,2,9,0.00
2013-12-18,46.0,38.2,31.0,33.0,28.5,24.0,92,68,46,27.01,26.83,16,2,16,0.00
2013-12-19,33.0,24.9,19.0,32.0,18.8,14.0,100,76,55,27.17,26.87,12,3,12,0.00
2013-12-20,25.0,19.3,13.0,23.0,18.4,14.0,100,94,72,27.08,26.68,6,1,7,0.00
2013-12-21,33.0,26.6,22.0,29.0,25.9,23.0,100,95,79,27.05,26.71,7,0,7,0.02
2013-12-22,38.0,31.1,27.0,31.0,29.4,28.0,100,93,70,27.25,27.04,9,0,9,0.04
2013-12-23,38.0,33.7,30.0,37.0,32.7,28.0,100,95,71,27.25,26.99,23,1,23,0.30
2013-12-24,42.0,34.0,21.0,29.0,24.8,21.0,100,69,49,27.52,27.16,17,3,17,0.04
2013-12-25,33.0,22.6,13.0,26.0,20.5,14.0,100,90,64,27.56,27.38,7,1,7,0.00
2013-12-26,43.0,29.4,23.0,28.0,25.0,21.0,100,84,47,27.42,27.30,7,1,7,0.00
2013-12-27,43.0,26.6,16.0,31.0,24.4,16.0,100,91,52,27.36,27.05,18,2,18,0.00
2013-12-28,43.0,37.2,34.0,31.0,25.7,21.0,77,62,51,27.40,27.11,14,2,14,0.00
2013-12-29,36.0,31.2,22.0,26.0,22.8,18.0,89,69,56,27.41,27.21,10,2,10,0.00
2013-12-30,38.0,31.4,23.0,32.0,27.9,23.0,100,86,67,27.30,27.11,6,1,6,0.00
2013-12-31,40.0,34.7,32.0,38.0,33.4,31.0,100,95,79,27.27,27.08,11,1,11,0.03
2014-1-1,44.0,32.8,24.0,33.0,27.6,23.0,99,81,51,27.46,27.27,9,1,9,0.00
2014-1-2,38.0,30.2,23.0,31.0,27.6,23.0,100,89,69,27.40,26.90,9,1,9,0.00